MAD weather

Public forecast

Using degrees Celsius for public forecast. Weather courtesy of forecast.io.

Current aviation weather report (METAR) for Adolfo Suárez Madrid–Barajas Airport

Retrieved 2020/08/10 18:30 UTC (21 minutes ago):

LEMD 101830Z 19009KT 9999 FEW065TCU 32/09 Q1012 NOSIG

Aviation forecast (TAF) for Adolfo Suárez Madrid–Barajas Airport

Retrieved 2020/08/10 18:27 UTC (24 minutes ago):

TAF LEMD 101700Z 1018/1124 VRB05KT 9999 FEW040 TX31/1116Z TN18/1106Z TEMPO 1018/1020 16010KT FEW040TCU PROB40 TEMPO 1018/1020 VRB15G30KT 3000 TSRA SCT040CB PROB30 TEMPO 1020/1104 VRB15G30KT 3000 TSRA FEW040CB PROB40 TEMPO 1106/1120 17010KT TEMPO 1110/1124 FEW040TCU PROB40 TEMPO 1111/1123 VRB15G30KT 3000 TS SHRA SCT040CB PROB30 TEMPO 1112/1120 VRB15G40KT 1200 TSGR SCT040CB